Time;durP1;ratioP1;P1;durP2;ratioP2;P2;SDS_P1;SDS_P2;PMS_P1;PMS_P2;Temp;Humidity;BMP_temperature;BMP_pressure;BME280_temperature;BME280_humidity;BME280_pressure;Samples;Min_cycle;Max_cycle;Signal;HPM_P1;HPM_P2
2022/05/28 00:01:16;;;;;;;2.70;1.10;;;24.20;36.60;;;;;;5137716;27;20024;-37
2022/05/28 00:03:42;;;;;;;3.97;1.40;;;24.20;36.60;;;;;;5137418;27;20026;-37
2022/05/28 00:06:21;;;;;;;3.42;1.40;;;24.20;36.60;;;;;;5136880;27;20412;-37
2022/05/28 00:08:47;;;;;;;3.47;1.38;;;24.20;36.70;;;;;;5136894;27;20011;-37
2022/05/28 00:11:18;;;;;;;2.53;1.08;;;24.20;36.70;;;;;;5136107;27;20038;-37
2022/05/28 00:13:44;;;;;;;2.97;1.27;;;24.20;36.70;;;;;;5136975;27;20024;-37
2022/05/28 00:16:11;;;;;;;2.35;1.00;;;24.20;36.80;;;;;;5136944;27;20015;-38
2022/05/28 00:18:38;;;;;;;2.65;1.20;;;24.20;36.80;;;;;;5137078;27;20015;-37
2022/05/28 00:21:04;;;;;;;3.05;1.35;;;24.20;36.80;;;;;;5136976;27;20047;-38
2022/05/28 00:23:30;;;;;;;3.65;1.10;;;24.20;36.90;;;;;;5137264;27;20027;-38
2022/05/28 00:25:56;;;;;;;3.15;1.10;;;24.10;36.80;;;;;;5136022;27;20039;-38
2022/05/28 00:28:22;;;;;;;3.75;1.55;;;24.20;36.90;;;;;;5137764;27;20542;-38
2022/05/28 00:30:49;;;;;;;3.28;1.20;;;24.20;36.90;;;;;;5137519;27;20011;-37
2022/05/28 00:33:14;;;;;;;2.22;1.23;;;24.10;36.90;;;;;;5138227;27;20504;-43
2022/05/28 00:35:42;;;;;;;4.03;1.77;;;24.10;36.90;;;;;;5144301;27;20019;-41
2022/05/28 00:38:09;;;;;;;2.72;1.20;;;24.10;37.00;;;;;;5144020;27;20351;-41
2022/05/28 00:40:35;;;;;;;2.67;1.30;;;24.10;37.00;;;;;;5143267;27;20018;-42
2022/05/28 00:43:03;;;;;;;4.32;1.30;;;24.10;37.00;;;;;;5145180;27;20035;-41
2022/05/28 00:45:29;;;;;;;5.00;1.42;;;24.10;37.00;;;;;;5145234;27;20054;-44
2022/05/28 00:47:57;;;;;;;5.70;1.58;;;24.10;37.00;;;;;;5144828;27;20041;-41
2022/05/28 00:50:23;;;;;;;4.15;1.60;;;24.10;37.10;;;;;;5137566;27;20042;-38
2022/05/28 00:52:49;;;;;;;2.53;1.30;;;24.10;37.20;;;;;;5137534;27;20026;-37
2022/05/28 00:55:15;;;;;;;3.53;1.40;;;24.10;37.10;;;;;;5135911;27;20019;-38
2022/05/28 00:57:42;;;;;;;4.97;1.30;;;24.10;37.20;;;;;;5136951;27;20145;-38
2022/05/28 01:00:10;;;;;;;3.42;1.20;;;24.10;37.20;;;;;;5136732;27;20075;-38
2022/05/28 01:02:53;;;;;;;4.30;1.45;;;24.10;37.30;;;;;;5136879;27;20019;-39
2022/05/28 01:05:29;;;;;;;4.68;1.50;;;24.10;37.30;;;;;;5136114;27;20023;-38
2022/05/28 01:08:11;;;;;;;4.07;1.58;;;24.10;37.30;;;;;;5135888;27;20019;-38
2022/05/28 01:10:55;;;;;;;3.65;1.30;;;24.10;37.40;;;;;;5136421;27;20050;-38
2022/05/28 01:13:30;;;;;;;4.20;1.67;;;24.10;37.40;;;;;;5136380;27;20036;-41
2022/05/28 01:16:03;;;;;;;3.92;1.30;;;24.10;37.40;;;;;;5135390;27;20438;-37
2022/05/28 01:18:33;;;;;;;3.78;1.25;;;24.10;37.40;;;;;;5137182;27;20008;-40
2022/05/28 01:21:07;;;;;;;3.35;1.58;;;24.10;37.40;;;;;;5135928;27;20653;-39
2022/05/28 01:23:43;;;;;;;3.70;1.50;;;24.10;37.40;;;;;;5135833;27;20487;-39
2022/05/28 01:26:15;;;;;;;4.97;1.58;;;24.10;37.40;;;;;;5135859;27;20007;-38
2022/05/28 01:28:43;;;;;;;4.10;1.50;;;24.10;37.40;;;;;;5137101;27;20164;-37
2022/05/28 01:31:09;;;;;;;2.67;1.17;;;24.00;37.40;;;;;;5118824;27;20014;-38
2022/05/28 01:33:35;;;;;;;4.47;1.80;;;24.00;37.40;;;;;;5135007;27;20504;-38
2022/05/28 01:36:04;;;;;;;3.58;1.38;;;24.10;37.50;;;;;;5134528;27;20015;-37
2022/05/28 01:38:31;;;;;;;3.90;1.40;;;24.00;37.50;;;;;;5134937;27;20038;-37
2022/05/28 01:40:57;;;;;;;3.13;1.40;;;24.00;37.50;;;;;;5117936;27;20045;-38
2022/05/28 01:43:23;;;;;;;4.18;1.60;;;24.10;37.50;;;;;;5135915;27;20016;-37
2022/05/28 01:45:48;;;;;;;2.90;1.30;;;24.00;37.50;;;;;;5134666;27;20474;-38
2022/05/28 01:48:14;;;;;;;4.20;1.38;;;24.00;37.60;;;;;;5117862;27;20426;-38
2022/05/28 01:50:45;;;;;;;4.35;1.48;;;24.00;37.50;;;;;;5119463;27;20022;-37
2022/05/28 01:53:12;;;;;;;2.45;1.38;;;24.00;37.60;;;;;;5135622;27;20010;-38
2022/05/28 01:55:40;;;;;;;3.85;1.50;;;24.00;37.60;;;;;;5136909;27;20055;-38
2022/05/28 01:58:07;;;;;;;4.30;1.30;;;24.00;37.60;;;;;;5118680;27;20011;-38
2022/05/28 02:00:32;;;;;;;3.47;1.58;;;24.00;37.60;;;;;;5136432;27;20010;-38
2022/05/28 02:02:59;;;;;;;4.38;1.50;;;24.00;37.60;;;;;;5136025;27;20370;-38
2022/05/28 02:05:25;;;;;;;3.08;1.50;;;24.00;37.60;;;;;;5135675;27;20027;-40
2022/05/28 02:07:51;;;;;;;3.38;1.48;;;24.00;37.60;;;;;;5135479;27;20011;-38
2022/05/28 02:10:18;;;;;;;4.93;1.90;;;24.00;37.60;;;;;;5135777;27;20019;-38
2022/05/28 02:12:53;;;;;;;3.33;1.63;;;24.00;37.60;;;;;;5137022;27;20086;-39
2022/05/28 02:15:22;;;;;;;3.90;1.50;;;23.90;37.60;;;;;;5137009;27;20037;-38
2022/05/28 02:17:52;;;;;;;2.93;1.30;;;23.90;37.70;;;;;;5137278;27;20034;-37
2022/05/28 02:20:39;;;;;;;3.47;1.30;;;23.90;37.80;;;;;;5136037;27;20255;-38
2022/05/28 02:23:13;;;;;;;2.85;1.35;;;23.90;37.70;;;;;;5137432;27;20035;-40
2022/05/28 02:25:52;;;;;;;2.85;1.40;;;23.90;37.70;;;;;;5137685;27;20497;-42
2022/05/28 02:28:22;;;;;;;2.92;1.38;;;23.90;37.70;;;;;;5121335;27;20046;-39
2022/05/28 02:30:53;;;;;;;3.22;1.25;;;23.90;37.70;;;;;;5120511;27;20038;-43
2022/05/28 02:33:19;;;;;;;4.38;1.60;;;23.90;37.70;;;;;;5138594;27;20065;-38
2022/05/28 02:35:46;;;;;;;3.47;1.50;;;23.90;37.70;;;;;;5138469;27;20015;-39
2022/05/28 02:38:13;;;;;;;4.07;1.42;;;23.90;37.70;;;;;;5137628;27;20033;-39
2022/05/28 02:40:39;;;;;;;3.70;1.38;;;23.90;37.70;;;;;;5138159;27;20007;-40
2022/05/28 02:43:05;;;;;;;4.00;1.38;;;23.90;37.70;;;;;;5137565;27;20018;-39
2022/05/28 02:45:32;;;;;;;3.08;1.48;;;23.90;37.70;;;;;;5137860;27;20028;-38
2022/05/28 02:47:57;;;;;;;3.55;1.48;;;23.90;37.70;;;;;;5133885;27;20038;-40
2022/05/28 02:50:27;;;;;;;3.88;1.90;;;23.90;37.80;;;;;;5135997;27;20030;-39
2022/05/28 02:52:53;;;;;;;4.10;1.60;;;23.90;37.70;;;;;;5135835;27;20465;-38
2022/05/28 02:55:19;;;;;;;3.65;1.70;;;23.90;37.70;;;;;;5136199;27;20020;-39
2022/05/28 02:57:46;;;;;;;4.97;1.60;;;23.90;37.70;;;;;;5136021;27;20023;-37
2022/05/28 03:00:15;;;;;;;2.90;1.42;;;23.90;37.80;;;;;;5136618;28;20068;-38
2022/05/28 03:02:44;;;;;;;3.63;1.42;;;23.90;37.80;;;;;;5136340;27;20041;-39
2022/05/28 03:05:14;;;;;;;5.50;1.55;;;23.80;37.70;;;;;;5135335;28;20019;-41
2022/05/28 03:07:40;;;;;;;4.10;1.50;;;23.90;37.80;;;;;;5135523;27;20007;-38
2022/05/28 03:10:07;;;;;;;4.10;1.70;;;23.90;37.80;;;;;;5134302;28;20422;-38
2022/05/28 03:12:33;;;;;;;3.05;1.73;;;23.80;37.70;;;;;;5135800;28;20461;-38
2022/05/28 03:14:59;;;;;;;4.57;1.70;;;23.80;37.70;;;;;;5136559;28;20492;-38
2022/05/28 03:17:25;;;;;;;5.43;1.85;;;23.90;37.80;;;;;;5136327;28;20022;-39
2022/05/28 03:19:52;;;;;;;4.80;1.60;;;23.80;37.80;;;;;;5135578;28;20534;-37
2022/05/28 03:22:17;;;;;;;4.57;1.67;;;23.80;37.80;;;;;;5135702;28;20031;-39
2022/05/28 03:24:43;;;;;;;3.05;1.30;;;23.80;37.80;;;;;;5135416;28;20023;-37
2022/05/28 03:27:09;;;;;;;3.45;1.60;;;23.80;37.80;;;;;;5134659;28;20094;-38
2022/05/28 03:29:35;;;;;;;6.30;1.92;;;23.90;37.80;;;;;;5134833;28;20046;-37
2022/05/28 03:32:01;;;;;;;3.67;1.70;;;23.80;37.80;;;;;;5115926;28;20111;-39
2022/05/28 03:34:27;;;;;;;2.58;1.33;;;23.90;37.80;;;;;;5134482;28;20040;-38
2022/05/28 03:36:54;;;;;;;3.50;1.50;;;23.80;37.80;;;;;;5133017;28;20389;-39
2022/05/28 03:39:19;;;;;;;4.15;1.55;;;23.80;37.80;;;;;;5134367;28;20019;-37
2022/05/28 03:41:46;;;;;;;4.07;1.42;;;23.80;37.80;;;;;;5134350;28;20015;-37
2022/05/28 03:44:12;;;;;;;4.68;1.60;;;23.80;37.80;;;;;;5133152;28;20028;-38
2022/05/28 03:46:39;;;;;;;4.25;1.50;;;23.80;37.80;;;;;;5134762;28;20408;-38
2022/05/28 03:49:25;;;;;;;2.65;1.35;;;23.80;37.80;;;;;;5134979;27;20015;-38
2022/05/28 03:51:52;;;;;;;3.75;1.52;;;23.80;37.90;;;;;;5117239;28;20082;-37
2022/05/28 03:54:18;;;;;;;3.85;1.45;;;23.80;37.80;;;;;;5132899;28;20016;-37
2022/05/28 03:56:45;;;;;;;3.92;1.60;;;23.80;37.80;;;;;;5132852;28;20035;-37
2022/05/28 03:59:11;;;;;;;3.78;1.60;;;23.80;37.80;;;;;;5133892;27;20019;-36
2022/05/28 04:01:37;;;;;;;3.45;1.50;;;23.80;37.80;;;;;;5137093;27;20358;-36
2022/05/28 04:04:03;;;;;;;3.58;1.77;;;23.80;38.40;;;;;;5138970;27;20032;-39
2022/05/28 04:06:30;;;;;;;5.13;1.70;;;23.80;37.80;;;;;;5144559;27;20039;-38
2022/05/28 04:08:56;;;;;;;4.38;1.50;;;23.80;37.80;;;;;;5143704;27;20026;-38
2022/05/28 04:11:23;;;;;;;4.75;1.83;;;23.90;37.70;;;;;;5143523;27;20011;-38
2022/05/28 04:13:50;;;;;;;3.60;1.50;;;23.90;37.70;;;;;;5144909;27;20484;-38
2022/05/28 04:16:16;;;;;;;3.85;1.52;;;23.90;37.60;;;;;;5144843;27;20019;-38
2022/05/28 04:18:43;;;;;;;6.13;1.83;;;23.90;37.50;;;;;;5144898;27;20011;-38
2022/05/28 04:21:09;;;;;;;3.65;1.65;;;24.00;37.40;;;;;;5138310;27;20071;-39
2022/05/28 04:23:34;;;;;;;4.10;1.63;;;24.00;37.30;;;;;;5137566;27;20023;-37
2022/05/28 04:26:01;;;;;;;3.75;1.40;;;24.00;37.30;;;;;;5137435;27;20101;-37
2022/05/28 04:28:26;;;;;;;4.15;1.55;;;24.10;37.30;;;;;;5137227;27;20100;-37
2022/05/28 04:30:53;;;;;;;4.25;1.52;;;24.20;37.20;;;;;;5137903;27;20023;-37
2022/05/28 04:33:19;;;;;;;5.10;1.60;;;24.20;37.10;;;;;;5139268;27;20037;-38
2022/05/28 04:35:44;;;;;;;3.38;1.20;;;24.30;37.00;;;;;;5137518;27;20015;-37
2022/05/28 04:38:10;;;;;;;4.25;1.70;;;24.40;36.90;;;;;;5137387;27;20477;-37
2022/05/28 04:40:36;;;;;;;2.95;1.40;;;24.40;36.80;;;;;;5136297;27;20037;-37
2022/05/28 04:43:02;;;;;;;3.22;1.45;;;24.40;37.40;;;;;;5136959;27;20016;-38
2022/05/28 04:45:29;;;;;;;4.68;1.63;;;24.50;36.90;;;;;;5135236;27;20481;-37
2022/05/28 04:47:55;;;;;;;4.38;1.60;;;24.60;36.70;;;;;;5136962;27;20022;-39
2022/05/28 04:50:22;;;;;;;3.83;1.60;;;24.60;36.50;;;;;;5136635;27;20019;-37
2022/05/28 04:52:47;;;;;;;3.35;1.38;;;24.70;36.50;;;;;;5136345;27;20017;-37
2022/05/28 04:55:13;;;;;;;3.97;1.70;;;24.80;36.30;;;;;;5135184;27;20023;-38
2022/05/28 04:57:39;;;;;;;4.25;1.38;;;24.80;36.20;;;;;;5136564;27;20016;-37
2022/05/28 05:00:09;;;;;;;2.20;1.25;;;24.90;36.00;;;;;;5135625;27;20525;-40
2022/05/28 05:02:35;;;;;;;3.05;1.25;;;25.10;35.80;;;;;;5134904;27;20107;-39
2022/05/28 05:05:02;;;;;;;3.30;1.45;;;25.20;35.60;;;;;;5136140;27;20046;-38
2022/05/28 05:07:27;;;;;;;3.17;1.50;;;25.20;35.40;;;;;;5134447;27;20506;-37
2022/05/28 05:09:53;;;;;;;4.40;1.60;;;25.40;35.20;;;;;;5135875;27;20011;-37
2022/05/28 05:12:19;;;;;;;3.35;1.50;;;25.50;35.60;;;;;;5134903;27;20481;-37
2022/05/28 05:14:46;;;;;;;2.95;1.40;;;25.60;34.90;;;;;;5135786;27;20023;-37
2022/05/28 05:17:12;;;;;;;3.15;1.33;;;25.70;34.70;;;;;;5136038;27;20084;-43
2022/05/28 05:19:39;;;;;;;3.28;1.50;;;25.80;34.60;;;;;;5136085;27;20015;-37
2022/05/28 05:22:06;;;;;;;3.65;1.48;;;26.00;34.40;;;;;;5136427;27;20035;-38
2022/05/28 05:24:33;;;;;;;3.47;1.30;;;26.10;34.10;;;;;;5136532;27;20060;-37
2022/05/28 05:27:00;;;;;;;3.08;1.20;;;26.20;33.90;;;;;;5136214;27;20012;-37
2022/05/28 05:29:26;;;;;;;3.22;1.40;;;26.30;33.70;;;;;;5136123;27;20027;-38
2022/05/28 05:31:53;;;;;;;2.85;1.25;;;26.40;33.60;;;;;;5135839;27;20467;-37
2022/05/28 05:34:19;;;;;;;3.05;1.50;;;26.60;33.50;;;;;;5135563;27;20023;-38
2022/05/28 05:36:45;;;;;;;3.85;1.50;;;26.60;33.20;;;;;;5138308;27;20012;-39
2022/05/28 05:39:11;;;;;;;2.85;1.42;;;26.80;33.10;;;;;;5138237;27;20023;-38
2022/05/28 05:41:40;;;;;;;3.60;1.40;;;26.90;33.00;;;;;;5139131;27;20019;-38
2022/05/28 05:44:07;;;;;;;3.97;1.52;;;27.00;32.80;;;;;;5139060;27;20028;-39
2022/05/28 05:46:33;;;;;;;3.15;1.30;;;27.10;32.60;;;;;;5137039;27;20012;-37
2022/05/28 05:49:00;;;;;;;2.03;1.23;;;27.20;32.50;;;;;;5136691;27;20122;-38
2022/05/28 05:51:28;;;;;;;3.35;1.30;;;27.30;32.30;;;;;;5135254;27;20011;-37
2022/05/28 05:53:55;;;;;;;3.72;1.50;;;27.40;32.20;;;;;;5135672;27;20106;-39
2022/05/28 05:56:20;;;;;;;2.13;1.20;;;27.50;32.10;;;;;;5135436;27;20015;-37
2022/05/28 05:58:46;;;;;;;2.70;1.10;;;27.60;32.00;;;;;;5135274;27;20103;-39
2022/05/28 06:01:12;;;;;;;3.10;1.50;;;27.60;31.80;;;;;;5135853;27;20055;-37
2022/05/28 06:03:44;;;;;;;2.90;1.30;;;27.80;31.80;;;;;;5135524;27;20053;-36
2022/05/28 06:06:11;;;;;;;2.58;1.20;;;27.80;31.60;;;;;;5134617;27;20496;-37
2022/05/28 06:08:38;;;;;;;4.13;1.70;;;27.90;31.60;;;;;;5136959;27;20008;-37
2022/05/28 06:11:03;;;;;;;2.50;1.30;;;28.00;31.50;;;;;;5137786;27;20011;-36
2022/05/28 06:13:30;;;;;;;3.22;1.30;;;28.10;31.20;;;;;;5137317;27;20400;-37
2022/05/28 06:15:56;;;;;;;2.65;1.30;;;28.20;31.20;;;;;;5136328;27;20832;-38
2022/05/28 06:18:22;;;;;;;2.97;1.58;;;28.20;31.00;;;;;;5135461;27;20102;-37
2022/05/28 06:20:49;;;;;;;2.28;1.13;;;28.30;31.00;;;;;;5135634;27;20092;-37
2022/05/28 06:23:16;;;;;;;3.92;1.50;;;28.40;30.90;;;;;;5137672;27;20028;-38
2022/05/28 06:25:42;;;;;;;2.92;1.30;;;28.50;30.80;;;;;;5137861;27;20046;-38
2022/05/28 06:28:08;;;;;;;3.28;1.50;;;28.60;30.70;;;;;;5138519;27;20362;-38
2022/05/28 06:30:34;;;;;;;3.13;1.25;;;28.70;30.50;;;;;;5138184;27;20043;-39
2022/05/28 06:33:01;;;;;;;2.72;1.27;;;28.80;30.40;;;;;;5138699;27;20049;-41
2022/05/28 06:35:27;;;;;;;2.67;1.40;;;28.80;30.30;;;;;;5136203;27;20011;-40
2022/05/28 06:37:53;;;;;;;2.75;1.30;;;28.80;30.30;;;;;;5135102;27;20108;-38
2022/05/28 06:40:21;;;;;;;1.75;1.08;;;28.90;30.30;;;;;;5136395;27;20023;-38
2022/05/28 06:42:49;;;;;;;2.10;1.05;;;29.00;30.20;;;;;;5136125;27;20023;-39
2022/05/28 06:45:15;;;;;;;2.97;1.30;;;29.00;30.00;;;;;;5136409;27;20106;-40
2022/05/28 06:47:44;;;;;;;2.30;1.20;;;29.10;30.10;;;;;;5117840;27;20027;-40
2022/05/28 06:52:55;;;;;;;2.97;1.20;;;29.00;30.20;;;;;;5139030;27;20022;-41
2022/05/28 06:55:22;;;;;;;3.00;1.52;;;29.10;30.10;;;;;;5136814;27;20474;-40
2022/05/28 06:57:48;;;;;;;2.45;1.30;;;29.00;30.10;;;;;;5137076;28;20021;-39
2022/05/28 07:00:14;;;;;;;3.40;1.52;;;29.10;30.20;;;;;;5135382;28;20094;-38
2022/05/28 07:02:40;;;;;;;1.85;0.98;;;29.20;30.10;;;;;;5136534;27;20061;-38
2022/05/28 07:05:07;;;;;;;3.38;1.20;;;29.30;30.00;;;;;;5134962;28;20092;-40
2022/05/28 07:07:33;;;;;;;2.63;1.15;;;29.40;30.00;;;;;;5134142;27;20022;-37
2022/05/28 07:10:00;;;;;;;2.72;1.20;;;29.50;29.90;;;;;;5134123;28;20020;-40
2022/05/28 07:12:26;;;;;;;2.40;1.20;;;29.50;29.70;;;;;;5133799;28;20026;-40
2022/05/28 07:14:53;;;;;;;2.97;1.13;;;29.30;29.90;;;;;;5133942;28;20026;-39
2022/05/28 07:17:19;;;;;;;2.85;1.23;;;29.10;30.00;;;;;;5133685;27;20122;-40
2022/05/28 07:19:45;;;;;;;2.70;1.13;;;28.80;30.30;;;;;;5132766;28;20031;-40
2022/05/28 07:22:12;;;;;;;2.00;1.10;;;28.60;30.70;;;;;;5133638;27;20104;-40
2022/05/28 07:24:39;;;;;;;2.95;1.20;;;28.50;30.70;;;;;;5133650;28;20020;-39
2022/05/28 07:27:06;;;;;;;2.97;1.30;;;28.60;31.00;;;;;;5133653;28;20014;-38
2022/05/28 07:29:32;;;;;;;3.40;1.20;;;28.90;30.70;;;;;;5134368;28;20008;-40
2022/05/28 07:31:58;;;;;;;2.60;1.05;;;29.10;30.40;;;;;;5134451;28;20015;-39
2022/05/28 07:34:24;;;;;;;2.47;1.20;;;29.20;30.10;;;;;;5135060;27;20072;-38
2022/05/28 07:36:50;;;;;;;2.50;1.23;;;29.40;30.00;;;;;;5138798;27;20416;-39
2022/05/28 07:39:16;;;;;;;3.10;1.20;;;29.50;30.00;;;;;;5138737;27;20023;-38
2022/05/28 07:41:43;;;;;;;3.10;1.10;;;29.60;29.80;;;;;;5138283;27;20019;-38
2022/05/28 07:44:09;;;;;;;2.60;1.08;;;29.80;29.70;;;;;;5138176;27;20027;-39
2022/05/28 07:46:36;;;;;;;3.38;1.20;;;29.90;29.60;;;;;;5137910;27;20507;-38
2022/05/28 07:49:02;;;;;;;3.30;1.13;;;30.00;29.60;;;;;;5140596;27;20019;-38
2022/05/28 07:51:28;;;;;;;2.70;1.20;;;30.00;29.50;;;;;;5144891;27;20030;-41
2022/05/28 07:53:55;;;;;;;2.80;1.00;;;30.00;29.40;;;;;;5145129;27;20039;-43
2022/05/28 07:56:20;;;;;;;3.75;1.05;;;30.10;29.40;;;;;;5145168;27;20015;-40
2022/05/28 07:58:47;;;;;;;2.00;1.00;;;30.20;29.40;;;;;;5126771;27;20034;-41
2022/05/28 08:01:27;;;;;;;2.78;1.30;;;30.20;29.30;;;;;;5144243;27;20023;-40
2022/05/28 08:03:52;;;;;;;2.25;1.10;;;30.20;29.30;;;;;;5144355;27;20062;-41
2022/05/28 08:06:18;;;;;;;3.00;1.10;;;30.30;29.20;;;;;;5123683;27;20007;-43
2022/05/28 08:08:45;;;;;;;2.88;1.20;;;30.30;29.20;;;;;;5140071;27;20020;-39
2022/05/28 08:11:10;;;;;;;2.08;0.90;;;30.40;29.20;;;;;;5138625;27;20368;-43
2022/05/28 08:13:37;;;;;;;2.58;0.90;;;30.40;29.10;;;;;;5137839;27;20016;-40
2022/05/28 08:16:03;;;;;;;2.25;1.20;;;30.50;29.10;;;;;;5138811;27;20338;-40
2022/05/28 08:18:29;;;;;;;2.78;0.90;;;30.50;29.00;;;;;;5138759;27;20050;-41
2022/05/28 08:23:40;;;;;;;2.15;1.00;;;30.40;29.20;;;;;;5136905;27;20087;-40
2022/05/28 08:26:06;;;;;;;3.95;1.25;;;30.40;29.10;;;;;;5136960;27;20011;-40
2022/05/28 08:28:34;;;;;;;2.75;0.90;;;30.40;29.10;;;;;;5136812;27;20016;-40
2022/05/28 08:31:00;;;;;;;3.15;1.08;;;30.30;29.00;;;;;;5136666;27;20004;-40
2022/05/28 08:33:27;;;;;;;3.17;0.93;;;30.20;29.10;;;;;;5136631;27;20011;-41
2022/05/28 08:35:55;;;;;;;2.08;1.00;;;29.90;29.40;;;;;;5136500;27;20033;-39
2022/05/28 08:38:22;;;;;;;2.10;0.90;;;29.80;29.70;;;;;;5136766;27;20033;-40
2022/05/28 08:41:06;;;;;;;3.33;1.40;;;29.70;30.20;;;;;;5137200;27;20013;-40
2022/05/28 08:43:36;;;;;;;2.45;1.00;;;29.80;29.70;;;;;;5137217;27;20008;-46
2022/05/28 08:46:03;;;;;;;2.25;0.90;;;29.90;30.00;;;;;;5136062;27;20012;-42
2022/05/28 08:48:41;;;;;;;2.28;0.93;;;30.00;29.50;;;;;;5136751;27;20015;-40
2022/05/28 08:51:37;;;;;;;3.92;1.10;;;30.00;29.40;;;;;;5119141;27;20094;-39
2022/05/28 08:54:24;;;;;;;1.85;0.93;;;30.00;29.80;;;;;;5132131;27;20027;-39
2022/05/28 08:56:50;;;;;;;1.75;1.00;;;30.20;29.40;;;;;;5137088;27;20049;-40
2022/05/28 08:59:18;;;;;;;2.65;0.88;;;30.20;29.30;;;;;;5137020;27;20043;-40
2022/05/28 09:01:44;;;;;;;3.08;0.85;;;30.10;29.40;;;;;;5136032;27;20021;-43
2022/05/28 09:04:14;;;;;;;1.48;0.70;;;30.10;29.40;;;;;;5135613;27;20023;-40
2022/05/28 09:06:46;;;;;;;2.33;0.80;;;30.20;29.30;;;;;;5135636;27;20011;-39
2022/05/28 09:09:14;;;;;;;3.00;0.98;;;30.20;29.30;;;;;;5136409;27;20015;-40
2022/05/28 09:11:41;;;;;;;2.42;0.90;;;30.20;29.20;;;;;;5136085;27;20012;-39
2022/05/28 09:14:27;;;;;;;1.77;0.73;;;30.20;29.10;;;;;;5136312;27;20015;-40
2022/05/28 09:16:57;;;;;;;1.67;0.73;;;30.30;29.20;;;;;;5136111;27;20012;-40
2022/05/28 09:19:24;;;;;;;;;;;30.30;29.10;;;;;;5137094;27;20015;-40
2022/05/28 09:21:51;;;;;;;2.70;0.82;;;30.30;29.20;;;;;;5152321;27;19912;-40
2022/05/28 09:24:25;;;;;;;2.33;0.90;;;30.10;29.20;;;;;;5134811;27;20023;-41
2022/05/28 09:27:12;;;;;;;2.30;0.98;;;29.80;29.30;;;;;;5135574;27;20003;-42
2022/05/28 09:29:56;;;;;;;1.75;0.77;;;29.70;29.70;;;;;;5137659;27;20011;-40
2022/05/28 09:32:28;;;;;;;1.83;0.70;;;29.70;29.60;;;;;;5137166;27;20050;-42
2022/05/28 09:35:21;;;;;;;2.03;0.90;;;29.70;29.60;;;;;;5138509;27;20011;-44
2022/05/28 09:38:15;;;;;;;2.35;0.95;;;29.80;29.50;;;;;;5141149;27;20019;-41
2022/05/28 09:41:01;;;;;;;2.05;0.80;;;29.80;29.50;;;;;;5141253;27;20030;-40
2022/05/28 09:43:42;;;;;;;3.17;1.00;;;29.70;29.50;;;;;;5141775;27;20011;-46
2022/05/28 09:46:12;;;;;;;2.45;0.80;;;29.70;29.60;;;;;;5139452;27;20095;-43
2022/05/28 09:48:38;;;;;;;2.22;0.57;;;29.60;29.70;;;;;;5138840;27;20084;-43
2022/05/28 09:51:05;;;;;;;2.20;0.77;;;29.60;29.60;;;;;;5139056;27;20094;-40
2022/05/28 09:56:24;;;;;;;3.50;0.70;;;29.30;29.90;;;;;;5138279;27;20039;-41
2022/05/28 09:58:51;;;;;;;2.35;0.70;;;29.10;30.00;;;;;;5138394;27;20034;-42
2022/05/28 10:01:23;;;;;;;1.70;0.70;;;29.00;30.00;;;;;;5137569;27;20477;-40
2022/05/28 10:06:49;;;;;;;1.73;0.70;;;28.90;30.20;;;;;;5137867;27;20054;-43
2022/05/28 10:09:20;;;;;;;1.83;0.80;;;29.00;30.20;;;;;;5138025;27;20415;-41
2022/05/28 10:12:13;;;;;;;1.92;0.70;;;29.00;30.00;;;;;;5138118;27;20038;-40
2022/05/28 10:14:39;;;;;;;1.80;0.60;;;29.00;30.00;;;;;;5128416;27;20107;-41
2022/05/28 10:17:05;;;;;;;1.80;0.68;;;29.00;30.00;;;;;;5139399;27;20011;-42
2022/05/28 10:19:41;;;;;;;2.10;0.70;;;29.10;29.90;;;;;;5137432;27;20012;-41
2022/05/28 10:22:12;;;;;;;2.10;0.80;;;29.10;29.90;;;;;;5136139;27;20039;-41
2022/05/28 10:24:52;;;;;;;1.85;0.70;;;29.20;29.90;;;;;;5136697;27;20046;-40
2022/05/28 10:27:38;;;;;;;1.33;0.70;;;29.10;29.90;;;;;;5135584;27;20022;-40
2022/05/28 10:30:09;;;;;;;2.00;0.60;;;29.10;29.90;;;;;;5135753;27;20019;-41
2022/05/28 10:32:41;;;;;;;1.10;0.50;;;29.10;29.90;;;;;;5136682;27;20030;-44
2022/05/28 10:35:15;;;;;;;1.85;0.70;;;29.00;29.80;;;;;;5135370;27;20015;-40
2022/05/28 10:37:41;;;;;;;3.30;0.70;;;29.00;29.80;;;;;;5136199;27;20019;-41
2022/05/28 10:40:26;;;;;;;1.67;0.75;;;29.00;29.80;;;;;;5136439;27;20015;-40
2022/05/28 10:43:02;;;;;;;2.42;0.75;;;29.00;29.90;;;;;;5135413;27;20578;-43
2022/05/28 10:45:39;;;;;;;1.73;0.60;;;28.90;29.90;;;;;;5137138;27;20066;-42
2022/05/28 10:48:17;;;;;;;2.35;0.77;;;28.80;29.90;;;;;;5137918;27;20003;-42
2022/05/28 10:51:11;;;;;;;0.98;0.63;;;28.80;30.00;;;;;;5136603;27;20047;-40
2022/05/28 10:53:49;;;;;;;2.55;0.85;;;28.70;30.00;;;;;;5128617;27;20019;-39
2022/05/28 10:56:20;;;;;;;2.53;0.50;;;28.70;30.00;;;;;;5136853;27;20015;-40
2022/05/28 10:59:14;;;;;;;1.55;0.50;;;28.70;30.00;;;;;;5136139;27;20037;-39
2022/05/28 11:02:12;;;;;;;1.30;0.50;;;28.60;30.00;;;;;;5135804;27;20069;-40
2022/05/28 11:05:08;;;;;;;1.65;0.60;;;28.60;30.10;;;;;;5134070;28;20023;-39
2022/05/28 11:07:51;;;;;;;1.75;0.60;;;28.50;30.10;;;;;;5134085;28;20016;-38
2022/05/28 11:10:19;;;;;;;2.00;0.60;;;28.40;30.20;;;;;;5136995;27;20065;-37
2022/05/28 11:13:24;;;;;;;2.35;0.60;;;28.30;30.40;;;;;;5138049;27;20043;-37
2022/05/28 11:16:22;;;;;;;1.98;0.65;;;28.20;30.40;;;;;;5138859;27;20075;-38
2022/05/28 11:18:59;;;;;;;1.38;0.60;;;28.20;30.40;;;;;;5138792;27;20016;-39
2022/05/28 11:22:03;;;;;;;1.38;0.52;;;28.20;30.50;;;;;;5137743;27;20497;-38
2022/05/28 11:24:53;;;;;;;1.13;0.50;;;28.10;30.60;;;;;;5138761;27;20486;-39
2022/05/28 11:27:49;;;;;;;1.77;0.68;;;28.00;30.60;;;;;;5140315;27;20008;-36
2022/05/28 11:30:30;;;;;;;1.23;0.50;;;28.00;30.60;;;;;;5141230;27;20090;-37
2022/05/28 11:32:58;;;;;;;;;;;27.90;30.70;;;;;;5140860;27;20006;-39
2022/05/28 11:35:43;;;;;;;2.08;0.90;;;27.90;30.80;;;;;;5139492;27;19925;-40
2022/05/28 11:38:17;;;;;;;1.55;0.57;;;27.80;30.80;;;;;;5139414;27;20011;-38
2022/05/28 11:40:56;;;;;;;1.88;0.70;;;27.80;30.90;;;;;;5141191;27;20095;-42
2022/05/28 11:43:40;;;;;;;1.60;0.77;;;27.70;30.90;;;;;;5124487;27;20033;-39
2022/05/28 11:46:26;;;;;;;1.92;0.60;;;27.60;30.90;;;;;;5139529;27;20485;-39
2022/05/28 11:52:10;;;;;;;2.13;0.70;;;27.60;31.20;;;;;;5131375;27;20502;-39
2022/05/28 11:54:53;;;;;;;1.55;0.60;;;27.50;31.10;;;;;;5141639;27;20035;-40
2022/05/28 11:57:25;;;;;;;2.33;0.68;;;27.50;31.20;;;;;;5139773;27;20021;-39
2022/05/28 11:59:52;;;;;;;1.17;0.50;;;27.40;31.30;;;;;;5138629;27;20030;-40
2022/05/28 12:02:25;;;;;;;1.48;0.52;;;27.30;31.30;;;;;;5139333;27;20477;-39
2022/05/28 12:04:51;;;;;;;2.63;0.68;;;27.40;31.40;;;;;;5138587;27;20023;-39
2022/05/28 12:07:52;;;;;;;2.00;0.45;;;27.30;31.40;;;;;;5138812;27;20025;-38
2022/05/28 12:10:44;;;;;;;1.73;0.60;;;27.20;31.40;;;;;;5124268;27;20058;-39
2022/05/28 12:13:10;;;;;;;1.92;0.50;;;27.20;31.40;;;;;;5139004;27;20015;-39
2022/05/28 12:15:37;;;;;;;1.73;0.75;;;27.20;31.40;;;;;;5137258;27;20050;-39
2022/05/28 12:18:20;;;;;;;1.90;0.52;;;27.20;31.40;;;;;;5137571;27;20481;-42
2022/05/28 12:20:58;;;;;;;2.33;0.68;;;27.10;31.40;;;;;;5135894;27;20059;-38
2022/05/28 12:23:35;;;;;;;0.88;0.40;;;27.10;31.40;;;;;;5136626;27;20016;-38
2022/05/28 12:26:03;;;;;;;1.83;0.52;;;27.10;31.40;;;;;;5138081;27;20023;-40
2022/05/28 12:28:44;;;;;;;1.75;0.65;;;27.10;31.50;;;;;;5136461;27;20019;-38
2022/05/28 12:31:20;;;;;;;2.17;0.60;;;27.00;31.50;;;;;;5137941;27;20045;-39
2022/05/28 12:33:55;;;;;;;1.58;0.60;;;27.00;31.50;;;;;;5120799;27;20024;-38
2022/05/28 12:36:51;;;;;;;1.77;0.45;;;27.00;31.50;;;;;;5135968;27;20060;-39
2022/05/28 12:39:17;;;;;;;2.45;0.60;;;27.00;31.40;;;;;;5115634;27;20035;-40
2022/05/28 12:41:53;;;;;;;1.40;0.50;;;27.00;31.40;;;;;;5137572;27;20497;-38
2022/05/28 12:44:21;;;;;;;2.53;0.70;;;26.90;31.40;;;;;;5138088;27;20049;-39
2022/05/28 12:46:54;;;;;;;1.42;0.55;;;27.00;31.40;;;;;;5120098;27;20050;-39
2022/05/28 12:49:29;;;;;;;2.47;0.50;;;27.00;31.30;;;;;;5139106;27;20011;-39
2022/05/28 12:52:13;;;;;;;1.55;0.45;;;27.00;31.30;;;;;;5136937;27;20023;-39
2022/05/28 12:54:40;;;;;;;1.48;0.52;;;27.00;31.40;;;;;;5138170;27;20046;-39
2022/05/28 12:57:25;;;;;;;3.58;0.93;;;27.00;31.30;;;;;;5137653;27;20027;-38
2022/05/28 13:00:17;;;;;;;2.38;0.82;;;26.90;31.40;;;;;;5136776;27;20114;-38
2022/05/28 13:02:43;;;;;;;2.05;0.60;;;26.90;31.40;;;;;;5121491;27;20027;-39
2022/05/28 13:05:14;;;;;;;1.33;0.50;;;26.90;31.40;;;;;;5137473;27;20027;-41
2022/05/28 13:07:39;;;;;;;2.05;0.73;;;26.80;31.30;;;;;;5137969;27;20019;-39
2022/05/28 13:10:19;;;;;;;1.92;0.50;;;26.80;31.30;;;;;;5137282;27;20500;-38
2022/05/28 13:13:01;;;;;;;1.75;0.50;;;26.80;31.40;;;;;;5137835;27;20096;-39
2022/05/28 13:15:36;;;;;;;1.63;0.52;;;26.80;31.40;;;;;;5137415;27;20106;-38
2022/05/28 13:18:24;;;;;;;2.63;0.77;;;26.80;31.40;;;;;;5135466;27;20019;-38
2022/05/28 13:21:09;;;;;;;1.00;0.40;;;26.80;31.40;;;;;;5136633;27;20018;-39